sensor_id;sensor_type;location;lat;lon;timestamp;pressure;altitude;pressure_sealevel;temperature
72675;BMP280;60752;53.962;9.614;2023-04-03T00:11:52;58377.97;;;4.72
72675;BMP280;60752;53.962;9.614;2023-04-03T00:41:54;58399.63;;;4.72
72675;BMP280;60752;53.962;9.614;2023-04-03T01:12:12;58405.53;;;4.72
72675;BMP280;60752;53.962;9.614;2023-04-03T01:42:14;58364.19;;;4.72
72675;BMP280;60752;53.962;9.614;2023-04-03T02:12:16;58377.97;;;4.72
72675;BMP280;60752;53.962;9.614;2023-04-03T02:42:18;58383.88;;;4.72
72675;BMP280;60752;53.962;9.614;2023-04-03T03:12:19;58379.94;;;4.72
72675;BMP280;60752;53.962;9.614;2023-04-03T03:42:21;58397.66;;;4.72
72675;BMP280;60752;53.962;9.614;2023-04-03T04:12:23;58389.78;;;4.72
72675;BMP280;60752;53.962;9.614;2023-04-03T04:42:25;58399.63;;;4.72
72675;BMP280;60752;53.962;9.614;2023-04-03T05:12:27;58370.09;;;4.72
72675;BMP280;60752;53.962;9.614;2023-04-03T05:42:29;58437.03;;;4.72
72675;BMP280;60752;53.962;9.614;2023-04-03T06:12:30;58437.03;;;4.72
72675;BMP280;60752;53.962;9.614;2023-04-03T06:42:32;58488.22;;;4.72
72675;BMP280;60752;53.962;9.614;2023-04-03T07:12:34;58470.50;;;4.72
72675;BMP280;60752;53.962;9.614;2023-04-03T07:42:36;58535.47;;;4.72
72675;BMP280;60752;53.962;9.614;2023-04-03T08:12:38;58547.28;;;4.72
72675;BMP280;60752;53.962;9.614;2023-04-03T08:42:48;58590.59;;;4.72
72675;BMP280;60752;53.962;9.614;2023-04-03T09:12:59;58566.97;;;4.72
72675;BMP280;60752;53.962;9.614;2023-04-03T09:43:19;58580.75;;;4.72
72675;BMP280;60752;53.962;9.614;2023-04-03T10:13:21;58535.47;;;4.72
72675;BMP280;60752;53.962;9.614;2023-04-03T10:43:30;58507.91;;;4.72
72675;BMP280;60752;53.962;9.614;2023-04-03T11:13:35;58498.06;;;4.72
72675;BMP280;60752;53.962;9.614;2023-04-03T11:43:42;58507.91;;;4.72
72675;BMP280;60752;53.962;9.614;2023-04-03T12:14:04;58509.88;;;4.72
72675;BMP280;60752;53.962;9.614;2023-04-03T12:44:38;58456.72;;;4.72
72675;BMP280;60752;53.962;9.614;2023-04-03T13:14:51;58446.88;;;4.72
72675;BMP280;60752;53.962;9.614;2023-04-03T13:45:19;58456.72;;;4.72
72675;BMP280;60752;53.962;9.614;2023-04-03T14:15:23;58439.00;;;4.72
72675;BMP280;60752;53.962;9.614;2023-04-03T14:45:25;58435.06;;;4.72
72675;BMP280;60752;53.962;9.614;2023-04-03T15:15:29;58409.47;;;4.72
72675;BMP280;60752;53.962;9.614;2023-04-03T15:45:31;58383.88;;;4.72
72675;BMP280;60752;53.962;9.614;2023-04-03T16:15:35;58389.78;;;4.72
72675;BMP280;60752;53.962;9.614;2023-04-03T16:45:37;58376.00;;;4.72
72675;BMP280;60752;53.962;9.614;2023-04-03T17:15:39;58362.22;;;4.72
72675;BMP280;60752;53.962;9.614;2023-04-03T17:45:41;58358.28;;;4.72
72675;BMP280;60752;53.962;9.614;2023-04-03T18:15:43;58328.75;;;4.72
72675;BMP280;60752;53.962;9.614;2023-04-03T18:45:45;58342.53;;;4.72
72675;BMP280;60752;53.962;9.614;2023-04-03T19:15:46;58291.34;;;4.72
72675;BMP280;60752;53.962;9.614;2023-04-03T19:45:48;58309.06;;;4.72
72675;BMP280;60752;53.962;9.614;2023-04-03T20:15:50;58326.78;;;4.72
72675;BMP280;60752;53.962;9.614;2023-04-03T20:45:52;58303.16;;;4.72
72675;BMP280;60752;53.962;9.614;2023-04-03T21:45:54;58332.69;;;4.72
72675;BMP280;60752;53.962;9.614;2023-04-03T22:15:56;58309.06;;;4.72
72675;BMP280;60752;53.962;9.614;2023-04-03T22:45:59;58309.06;;;4.72
72675;BMP280;60752;53.962;9.614;2023-04-03T23:16:02;58328.75;;;4.72
72675;BMP280;60752;53.962;9.614;2023-04-03T23:46:04;58352.38;;;4.72
